Time;durP1;ratioP1;P1;durP2;ratioP2;P2;SDS_P1;SDS_P2;PMS_P1;PMS_P2;Temp;Humidity;BMP_temperature;BMP_pressure;BME280_temperature;BME280_humidity;BME280_pressure;Samples;Min_cycle;Max_cycle;Signal;HPM_P1;HPM_P2
2023/01/25 00:01:06;;;;;;;61.50;27.33;;;-2.60;99.90;;;;;;4195097;28;20270;-60
2023/01/25 00:03:07;;;;;;;50.93;23.77;;;-2.60;99.90;;;;;;4194356;28;20289;-62
2023/01/25 00:05:09;;;;;;;54.33;24.33;;;-2.50;99.90;;;;;;4195399;28;20767;-62
2023/01/25 00:07:10;;;;;;;65.13;30.70;;;-2.50;99.90;;;;;;4186985;28;20676;-61
2023/01/25 00:09:11;;;;;;;72.10;31.27;;;-2.50;99.90;;;;;;4178687;28;20278;-66
2023/01/25 00:11:12;;;;;;;71.23;30.93;;;-2.50;99.90;;;;;;4178514;28;20262;-60
2023/01/25 00:13:14;;;;;;;74.20;30.43;;;-2.40;99.90;;;;;;4181018;28;20304;-62
2023/01/25 00:15:15;;;;;;;64.87;30.97;;;-2.40;99.90;;;;;;4193650;28;20311;-59
2023/01/25 00:17:16;;;;;;;63.83;30.87;;;-2.40;99.90;;;;;;4193141;28;20856;-74
2023/01/25 00:19:18;;;;;;;69.43;32.13;;;-2.50;99.90;;;;;;4195111;28;20343;-68
2023/01/25 00:21:24;;;;;;;69.27;31.70;;;-2.50;99.90;;;;;;4193816;28;20281;-74
2023/01/25 00:23:25;;;;;;;59.53;26.63;;;-2.50;99.90;;;;;;4194128;28;20351;-60
2023/01/25 00:25:26;;;;;;;64.57;30.10;;;-2.50;99.90;;;;;;4176263;28;20984;-67
2023/01/25 00:27:27;;;;;;;65.23;27.47;;;-2.50;99.90;;;;;;4179372;28;20328;-61
2023/01/25 00:29:28;;;;;;;66.53;30.30;;;-2.50;99.90;;;;;;4179087;28;20266;-61
2023/01/25 00:31:33;;;;;;;61.80;29.10;;;-2.60;99.90;;;;;;4179776;28;20827;-60
2023/01/25 00:33:34;;;;;;;51.07;23.87;;;-2.50;99.90;;;;;;4186955;28;20675;-60
2023/01/25 00:35:35;;;;;;;49.03;23.23;;;-2.50;99.90;;;;;;4192149;28;20265;-59
2023/01/25 00:37:48;;;;;;;56.60;26.93;;;-2.60;99.90;;;;;;4189963;28;20274;-65
2023/01/25 00:39:50;;;;;;;48.30;24.13;;;-2.60;99.90;;;;;;4193447;28;20330;-61
2023/01/25 00:41:51;;;;;;;51.87;24.73;;;-2.60;99.90;;;;;;4194455;28;20859;-61
2023/01/25 00:43:53;;;;;;;51.33;25.67;;;-2.60;99.90;;;;;;4193204;28;20832;-66
2023/01/25 00:46:00;;;;;;;47.53;23.27;;;-2.60;99.90;;;;;;4194113;28;20330;-61
2023/01/25 00:48:01;;;;;;;45.40;22.50;;;-2.60;99.90;;;;;;4194884;28;20386;-60
2023/01/25 00:50:04;;;;;;;50.77;24.20;;;-2.60;99.90;;;;;;4193728;28;20279;-61
2023/01/25 00:52:06;;;;;;;45.13;21.80;;;-2.60;99.90;;;;;;4194667;28;20306;-62
2023/01/25 00:54:07;;;;;;;51.37;23.30;;;-2.70;99.90;;;;;;4194420;28;20254;-61
2023/01/25 00:56:08;;;;;;;49.57;23.57;;;-2.70;99.90;;;;;;4193732;28;20402;-60
2023/01/25 00:58:09;;;;;;;52.13;24.17;;;-2.70;99.90;;;;;;4194747;28;20257;-61
2023/01/25 01:00:11;;;;;;;52.80;24.20;;;-2.60;99.90;;;;;;4193138;28;20270;-70
2023/01/25 01:02:12;;;;;;;82.43;26.87;;;-2.60;99.90;;;;;;4194726;28;20293;-61
2023/01/25 01:04:13;;;;;;;55.90;24.50;;;-2.60;99.90;;;;;;4185396;28;20328;-63
2023/01/25 01:06:14;;;;;;;61.47;27.57;;;-2.60;99.90;;;;;;4176778;28;20282;-62
2023/01/25 01:08:15;;;;;;;59.07;27.40;;;-2.60;99.90;;;;;;4176866;28;20847;-61
2023/01/25 01:10:17;;;;;;;65.00;29.67;;;-2.60;99.90;;;;;;4180082;28;20847;-60
2023/01/25 01:12:18;;;;;;;60.40;25.83;;;-2.60;99.90;;;;;;4188409;28;20285;-61
2023/01/25 01:14:20;;;;;;;61.83;25.87;;;-2.60;99.90;;;;;;4194773;28;20331;-76
2023/01/25 01:16:22;;;;;;;57.00;25.17;;;-2.60;99.90;;;;;;4185801;28;20332;-62
2023/01/25 01:18:23;;;;;;;56.80;25.00;;;-2.60;99.90;;;;;;4177735;28;20286;-76
2023/01/25 01:20:24;;;;;;;52.83;25.33;;;-2.60;99.90;;;;;;4177198;28;20331;-61
2023/01/25 01:22:25;;;;;;;58.07;25.13;;;-2.60;99.90;;;;;;4177959;28;20282;-62
2023/01/25 01:24:26;;;;;;;59.37;25.40;;;-2.70;99.90;;;;;;4177561;28;20261;-63
2023/01/25 01:26:27;;;;;;;55.40;26.17;;;-2.70;99.90;;;;;;4177231;28;20903;-60
2023/01/25 01:28:29;;;;;;;61.63;25.77;;;-2.70;99.90;;;;;;4177986;28;20270;-62
2023/01/25 01:30:30;;;;;;;54.60;24.73;;;-2.70;99.90;;;;;;4175348;28;20266;-59
2023/01/25 01:32:32;;;;;;;58.30;25.67;;;-2.70;99.90;;;;;;4178298;28;20329;-63
2023/01/25 01:34:33;;;;;;;55.57;24.93;;;-2.70;99.90;;;;;;4177645;28;20744;-60
2023/01/25 01:36:35;;;;;;;57.73;27.03;;;-2.70;99.90;;;;;;4176669;28;20278;-62
2023/01/25 01:38:36;;;;;;;57.37;27.20;;;-2.70;99.90;;;;;;4176417;28;20274;-62
2023/01/25 01:40:42;;;;;;;59.73;26.67;;;-2.70;99.90;;;;;;4178019;28;20274;-61
2023/01/25 01:43:05;;;;;;;56.40;27.10;;;-2.80;99.90;;;;;;4176705;28;20282;-74
2023/01/25 01:45:45;;;;;;;62.20;28.80;;;-2.80;99.90;;;;;;4177768;28;20270;-61
2023/01/25 01:47:47;;;;;;;70.63;32.33;;;-2.80;99.90;;;;;;4153679;28;20324;-62
2023/01/25 01:50:03;;;;;;;78.60;34.53;;;-2.80;99.90;;;;;;4176303;28;20344;-66
2023/01/25 01:52:12;;;;;;;86.23;35.93;;;-2.80;99.90;;;;;;4177164;28;20319;-60
2023/01/25 01:54:17;;;;;;;115.57;45.97;;;-2.80;99.90;;;;;;4177757;28;20266;-66
2023/01/25 01:56:26;;;;;;;106.37;44.87;;;-2.70;99.90;;;;;;4177067;28;21155;-63
2023/01/25 01:58:28;;;;;;;111.63;42.80;;;-2.70;99.90;;;;;;4177792;28;20278;-61
2023/01/25 02:00:33;;;;;;;79.00;34.10;;;-2.70;99.90;;;;;;4176757;28;20270;-60
2023/01/25 02:02:34;;;;;;;64.97;29.23;;;-2.70;99.90;;;;;;4177817;28;20286;-64
2023/01/25 02:04:36;;;;;;;58.27;26.17;;;-2.70;99.90;;;;;;4177309;28;20282;-61
2023/01/25 02:06:55;;;;;;;55.63;26.13;;;-2.80;99.90;;;;;;4177550;28;20998;-74
2023/01/25 02:08:58;;;;;;;60.63;25.10;;;-2.90;99.90;;;;;;4187481;28;20281;-61
2023/01/25 02:11:00;;;;;;;50.70;24.33;;;-3.00;99.90;;;;;;4194802;28;20315;-62
2023/01/25 02:13:02;;;;;;;55.07;23.40;;;-3.00;99.90;;;;;;4192659;28;20680;-61
2023/01/25 02:15:04;;;;;;;56.53;24.17;;;-3.10;99.90;;;;;;4193790;28;20338;-62
2023/01/25 02:17:05;;;;;;;49.03;23.07;;;-3.10;99.90;;;;;;4196039;28;20266;-61
2023/01/25 02:19:11;;;;;;;56.50;24.47;;;-3.10;99.90;;;;;;4184731;28;20298;-63
2023/01/25 02:21:13;;;;;;;51.40;25.27;;;-3.10;99.90;;;;;;4185676;28;20672;-61
2023/01/25 02:23:39;;;;;;;57.37;25.47;;;-3.10;99.90;;;;;;4190343;28;20352;-61
2023/01/25 02:25:40;;;;;;;61.10;26.63;;;-3.10;99.90;;;;;;4179455;28;20355;-61
2023/01/25 02:27:51;;;;;;;62.43;26.93;;;-3.10;99.90;;;;;;4180452;28;20270;-61
2023/01/25 02:29:53;;;;;;;59.67;27.63;;;-3.10;99.90;;;;;;4179445;28;20282;-71
2023/01/25 02:32:04;;;;;;;62.03;27.40;;;-3.10;99.90;;;;;;4180398;28;20270;-62
2023/01/25 02:34:05;;;;;;;60.97;27.87;;;-3.20;99.90;;;;;;4179483;28;20296;-61
2023/01/25 02:36:07;;;;;;;51.97;24.57;;;-3.20;99.90;;;;;;4195093;28;20269;-61
2023/01/25 02:38:11;;;;;;;54.67;24.63;;;-3.10;99.90;;;;;;4196199;28;20655;-61
2023/01/25 02:40:12;;;;;;;58.80;25.73;;;-3.10;99.90;;;;;;4196458;28;20261;-59
2023/01/25 02:42:14;;;;;;;54.80;25.23;;;-3.10;99.90;;;;;;4196093;28;20320;-61
2023/01/25 02:44:31;;;;;;;50.83;24.93;;;-3.10;99.90;;;;;;4195820;28;20315;-61
2023/01/25 02:46:35;;;;;;;53.17;24.40;;;-3.10;99.90;;;;;;4196025;28;20295;-61
2023/01/25 02:48:36;;;;;;;52.93;25.70;;;-3.10;99.90;;;;;;4195222;28;20370;-61
2023/01/25 02:50:37;;;;;;;55.73;25.33;;;-3.10;99.90;;;;;;4196532;28;20257;-62
2023/01/25 02:52:38;;;;;;;58.07;24.83;;;-3.10;99.90;;;;;;4195791;28;20296;-61
2023/01/25 02:54:39;;;;;;;56.73;25.77;;;-3.10;99.90;;;;;;4196643;28;20266;-60
2023/01/25 02:56:41;;;;;;;64.23;27.20;;;-3.10;99.90;;;;;;4195518;28;20258;-61
2023/01/25 02:58:42;;;;;;;57.93;27.67;;;-3.20;99.90;;;;;;4196711;28;20269;-62
2023/01/25 03:00:43;;;;;;;55.50;26.47;;;-3.20;99.90;;;;;;4194530;28;20285;-62
2023/01/25 03:02:44;;;;;;;53.70;24.47;;;-3.20;99.90;;;;;;4196648;28;21100;-62
2023/01/25 03:04:45;;;;;;;60.60;24.60;;;-3.30;99.90;;;;;;4195274;28;20266;-61
2023/01/25 03:06:47;;;;;;;54.87;23.67;;;-3.30;99.90;;;;;;4196653;28;20639;-61
2023/01/25 03:08:48;;;;;;;50.47;23.27;;;-3.30;99.90;;;;;;4195003;28;20656;-62
2023/01/25 03:10:50;;;;;;;54.27;23.50;;;-3.40;99.90;;;;;;4196268;28;20327;-61
2023/01/25 03:12:51;;;;;;;46.13;22.10;;;-3.40;99.90;;;;;;4194887;28;20261;-61
2023/01/25 03:14:52;;;;;;;49.60;22.37;;;-3.40;99.90;;;;;;4195853;28;20262;-62
2023/01/25 03:16:53;;;;;;;55.90;24.53;;;-3.50;99.90;;;;;;4187317;28;20310;-60
2023/01/25 03:18:55;;;;;;;70.87;28.10;;;-3.50;99.90;;;;;;4191769;28;20780;-78
2023/01/25 03:20:56;;;;;;;60.37;25.90;;;-3.50;99.90;;;;;;4195809;28;20332;-59
2023/01/25 03:22:57;;;;;;;53.97;25.23;;;-3.50;99.90;;;;;;4195150;28;20293;-61
2023/01/25 03:24:58;;;;;;;59.07;25.60;;;-3.50;99.90;;;;;;4194420;28;20343;-68
2023/01/25 03:27:13;;;;;;;55.20;25.67;;;-3.60;99.90;;;;;;4189976;28;20308;-61
2023/01/25 03:29:14;;;;;;;52.20;23.07;;;-3.60;99.90;;;;;;4192640;28;20806;-61
2023/01/25 03:31:16;;;;;;;60.17;26.17;;;-3.50;99.90;;;;;;4184060;28;20261;-64
2023/01/25 03:33:17;;;;;;;56.63;24.37;;;-3.50;99.90;;;;;;4195655;28;20319;-62
2023/01/25 03:35:18;;;;;;;50.10;23.53;;;-3.50;99.90;;;;;;4193090;28;20675;-62
2023/01/25 03:37:20;;;;;;;57.73;24.57;;;-3.50;99.90;;;;;;4195699;28;20323;-61
2023/01/25 03:39:21;;;;;;;54.63;24.13;;;-3.50;99.90;;;;;;4194699;28;20334;-62
2023/01/25 03:41:22;;;;;;;55.23;24.27;;;-3.60;99.90;;;;;;4189882;28;20677;-61
2023/01/25 03:43:23;;;;;;;55.13;25.30;;;-3.50;99.90;;;;;;4178203;28;20294;-61
2023/01/25 03:45:24;;;;;;;56.83;25.33;;;-3.50;99.90;;;;;;4179036;28;20392;-63
2023/01/25 03:47:26;;;;;;;48.93;25.37;;;-3.50;99.90;;;;;;4178176;28;20534;-60
2023/01/25 03:49:27;;;;;;;56.80;23.37;;;-3.50;99.90;;;;;;4178104;28;20819;-60
2023/01/25 03:51:28;;;;;;;52.33;23.97;;;-3.50;99.90;;;;;;4178827;28;20257;-61
2023/01/25 03:53:30;;;;;;;49.63;23.53;;;-3.50;99.90;;;;;;4178653;28;20339;-61
2023/01/25 03:55:31;;;;;;;53.23;23.37;;;-3.50;99.90;;;;;;4178839;28;20738;-64
2023/01/25 03:57:32;;;;;;;50.80;23.23;;;-3.50;99.90;;;;;;4192746;28;20266;-61
2023/01/25 03:59:34;;;;;;;50.30;23.87;;;-3.50;99.90;;;;;;4193183;28;20315;-63
2023/01/25 04:01:35;;;;;;;54.73;24.23;;;-3.60;99.90;;;;;;4192555;28;20265;-61
2023/01/25 04:03:36;;;;;;;53.87;23.73;;;-3.50;99.90;;;;;;4193993;28;20316;-61
2023/01/25 04:05:37;;;;;;;60.30;25.07;;;-3.60;99.90;;;;;;4193992;28;20277;-62
2023/01/25 04:07:38;;;;;;;49.80;23.10;;;-3.60;99.90;;;;;;4195491;28;20323;-61
2023/01/25 04:09:40;;;;;;;48.57;22.63;;;-3.60;99.90;;;;;;4186561;28;20278;-61
2023/01/25 04:11:41;;;;;;;53.23;24.13;;;-3.60;99.90;;;;;;4179122;28;20811;-70
2023/01/25 04:13:42;;;;;;;48.53;22.80;;;-3.70;99.90;;;;;;4177674;28;20730;-61
2023/01/25 04:15:43;;;;;;;53.37;22.70;;;-3.70;99.90;;;;;;4179500;28;20745;-61
2023/01/25 04:17:44;;;;;;;56.07;23.63;;;-3.70;99.90;;;;;;4178928;28;20336;-61
2023/01/25 04:19:45;;;;;;;56.60;24.10;;;-3.70;99.90;;;;;;4181285;28;20340;-61
2023/01/25 04:21:46;;;;;;;50.47;23.70;;;-3.70;99.90;;;;;;4180402;28;20270;-61
2023/01/25 04:23:48;;;;;;;49.93;21.10;;;-3.70;99.90;;;;;;4178202;28;20891;-62
2023/01/25 04:25:57;;;;;;;56.10;24.10;;;-3.70;99.90;;;;;;4185214;28;20285;-61
2023/01/25 04:27:58;;;;;;;48.43;23.23;;;-3.70;99.90;;;;;;4193653;28;20277;-60
2023/01/25 04:29:59;;;;;;;56.93;23.53;;;-3.70;99.90;;;;;;4194965;28;20319;-66
2023/01/25 04:32:01;;;;;;;52.90;24.13;;;-3.70;99.90;;;;;;4177816;28;20943;-63
2023/01/25 04:34:02;;;;;;;60.67;25.63;;;-3.70;99.90;;;;;;4178076;28;20258;-61
2023/01/25 04:36:04;;;;;;;63.33;26.57;;;-3.80;99.90;;;;;;4177667;28;20363;-61
2023/01/25 04:38:06;;;;;;;51.77;24.30;;;-3.80;99.90;;;;;;4179852;28;20274;-62
2023/01/25 04:40:08;;;;;;;51.80;22.57;;;-3.80;99.90;;;;;;4193470;28;20303;-60
2023/01/25 04:42:09;;;;;;;51.87;23.27;;;-3.70;99.90;;;;;;4194710;28;20797;-70
2023/01/25 04:44:10;;;;;;;46.80;22.20;;;-3.70;99.90;;;;;;4193586;28;20837;-61
2023/01/25 04:46:12;;;;;;;59.10;25.23;;;-3.70;99.90;;;;;;4191450;28;20323;-61
2023/01/25 04:48:14;;;;;;;49.90;24.23;;;-3.70;99.90;;;;;;4177073;28;20694;-71
2023/01/25 04:50:15;;;;;;;55.73;24.63;;;-3.70;99.90;;;;;;4177694;28;20270;-64
2023/01/25 04:52:16;;;;;;;65.93;23.73;;;-3.70;99.90;;;;;;4177817;28;20269;-61
2023/01/25 04:54:17;;;;;;;56.43;25.23;;;-3.70;99.90;;;;;;4177864;28;20269;-75
2023/01/25 04:56:19;;;;;;;62.03;24.90;;;-3.70;99.90;;;;;;4178717;28;20279;-62
2023/01/25 04:58:20;;;;;;;58.47;25.23;;;-3.80;99.90;;;;;;4178931;28;20282;-61
2023/01/25 05:00:21;;;;;;;56.93;25.20;;;-3.80;99.90;;;;;;4178896;28;20386;-61
2023/01/25 05:02:23;;;;;;;71.80;28.70;;;-3.80;99.90;;;;;;4187841;28;20291;-65
2023/01/25 05:04:24;;;;;;;77.27;28.80;;;-3.80;99.90;;;;;;4177951;28;20285;-69
2023/01/25 05:06:25;;;;;;;70.93;31.27;;;-3.80;99.90;;;;;;4176974;28;20353;-74
2023/01/25 05:08:26;;;;;;;57.00;26.23;;;-3.80;99.90;;;;;;4194165;28;20334;-64
2023/01/25 05:10:27;;;;;;;64.70;25.20;;;-3.70;99.90;;;;;;4193415;28;20327;-77
2023/01/25 05:12:28;;;;;;;53.33;23.53;;;-3.70;99.90;;;;;;4193959;28;20347;-59
2023/01/25 05:14:29;;;;;;;53.50;23.30;;;-3.70;99.90;;;;;;4192921;28;20691;-61
2023/01/25 05:16:31;;;;;;;69.10;25.00;;;-3.70;99.90;;;;;;4183299;28;20355;-65
2023/01/25 05:18:32;;;;;;;48.57;23.57;;;-3.70;99.90;;;;;;4176009;28;20278;-62
2023/01/25 05:20:33;;;;;;;55.93;23.77;;;-3.70;99.90;;;;;;4176930;28;20331;-59
2023/01/25 05:22:34;;;;;;;51.07;23.67;;;-3.70;99.90;;;;;;4177111;28;20308;-61
2023/01/25 05:24:36;;;;;;;57.30;24.87;;;-3.60;99.90;;;;;;4177135;28;20290;-60
2023/01/25 05:28:57;;;;;;;70.30;30.00;;;-3.70;99.90;;;;;;4177293;28;20803;-60
2023/01/25 05:30:58;;;;;;;62.87;27.57;;;-3.70;99.90;;;;;;4176894;28;20743;-61
2023/01/25 05:32:59;;;;;;;55.93;27.30;;;-3.70;99.90;;;;;;4176790;28;20316;-63
2023/01/25 05:35:00;;;;;;;55.93;26.40;;;-3.80;99.90;;;;;;4178289;28;20266;-62
2023/01/25 05:37:02;;;;;;;63.20;28.43;;;-3.80;99.90;;;;;;4175797;28;20669;-72
2023/01/25 05:39:07;;;;;;;60.83;28.40;;;-3.80;99.90;;;;;;4186955;28;20420;-61
2023/01/25 05:41:08;;;;;;;63.23;28.33;;;-3.70;99.90;;;;;;4176334;28;20339;-62
2023/01/25 05:43:09;;;;;;;62.63;28.70;;;-3.70;99.90;;;;;;4192068;28;20311;-61
2023/01/25 05:45:10;;;;;;;59.30;28.40;;;-3.70;99.90;;;;;;4191785;28;20834;-61
2023/01/25 05:47:14;;;;;;;66.03;27.33;;;-3.60;99.90;;;;;;4193694;28;20319;-67
2023/01/25 05:49:16;;;;;;;64.27;27.33;;;-3.60;99.90;;;;;;4196237;28;20279;-62
2023/01/25 05:51:17;;;;;;;68.83;28.33;;;-3.60;99.90;;;;;;4196925;28;20281;-60
2023/01/25 05:53:27;;;;;;;63.43;26.90;;;-3.60;99.90;;;;;;4195074;28;20634;-62
2023/01/25 05:55:28;;;;;;;54.55;26.70;;;-3.60;99.90;;;;;;4190454;28;20278;-65
2023/01/25 05:57:29;;;;;;;62.97;26.20;;;-3.50;99.90;;;;;;4191772;28;20045;-62
2023/01/25 05:59:30;;;;;;;60.70;28.37;;;-3.40;99.90;;;;;;4187415;28;20739;-62
2023/01/25 06:01:32;;;;;;;67.40;27.83;;;-3.40;99.90;;;;;;4191825;28;20285;-64
2023/01/25 06:03:33;;;;;;;69.10;27.00;;;-3.40;99.90;;;;;;4187515;28;20351;-62
2023/01/25 06:05:36;;;;;;;64.20;28.03;;;-3.30;99.90;;;;;;4179381;28;21415;-60
2023/01/25 06:07:37;;;;;;;69.47;29.97;;;-3.30;99.90;;;;;;4185585;28;20318;-65
2023/01/25 06:09:38;;;;;;;71.50;31.63;;;-3.20;99.90;;;;;;4196851;28;20269;-66
2023/01/25 06:11:43;;;;;;;73.23;31.07;;;-3.20;99.90;;;;;;4196342;28;20285;-70
2023/01/25 06:13:45;;;;;;;81.07;34.27;;;-3.20;99.90;;;;;;4196898;28;20348;-61
2023/01/25 06:15:56;;;;;;;90.10;35.67;;;-3.20;99.90;;;;;;4195475;28;20672;-62
2023/01/25 06:17:58;;;;;;;88.00;36.85;;;-3.20;99.90;;;;;;4196143;28;20282;-73
2023/01/25 06:19:59;;;;;;;86.73;36.10;;;-3.20;99.90;;;;;;4193672;28;20094;-62
2023/01/25 06:22:00;;;;;;;86.23;35.63;;;-3.20;99.90;;;;;;4196810;28;20334;-61
2023/01/25 06:24:02;;;;;;;95.13;38.03;;;-3.10;99.90;;;;;;4195817;28;20335;-63
2023/01/25 06:26:10;;;;;;;83.83;35.17;;;-3.10;99.90;;;;;;4196025;28;20811;-67
2023/01/25 06:28:11;;;;;;;86.03;36.27;;;-3.00;99.90;;;;;;4195731;28;20307;-62
2023/01/25 06:30:12;;;;;;;80.33;33.63;;;-2.90;99.90;;;;;;4196783;28;20265;-60
2023/01/25 06:32:14;;;;;;;70.70;34.10;;;-2.80;99.90;;;;;;4195389;28;20249;-61
2023/01/25 06:34:15;;;;;;;97.60;35.40;;;-2.80;99.90;;;;;;4196460;28;20262;-61
2023/01/25 06:36:19;;;;;;;79.47;32.87;;;-2.80;99.90;;;;;;4195654;28;20307;-59
2023/01/25 06:38:20;;;;;;;63.60;30.90;;;-2.80;99.90;;;;;;4195807;28;20749;-67
2023/01/25 06:40:21;;;;;;;68.77;30.20;;;-2.80;99.90;;;;;;4196115;28;20311;-65
2023/01/25 06:42:25;;;;;;;66.67;29.00;;;-2.80;99.90;;;;;;4195484;28;20269;-62
2023/01/25 06:44:26;;;;;;;62.47;28.77;;;-2.70;99.90;;;;;;4195915;28;20289;-62
2023/01/25 06:46:30;;;;;;;70.67;29.80;;;-2.70;99.90;;;;;;4195630;28;20334;-71
2023/01/25 06:48:32;;;;;;;66.17;29.37;;;-2.70;99.90;;;;;;4196428;28;20267;-66
2023/01/25 06:50:33;;;;;;;73.40;30.80;;;-2.70;99.90;;;;;;4195181;28;20575;-66
2023/01/25 06:52:37;;;;;;;71.77;31.97;;;-2.70;99.90;;;;;;4196620;28;20319;-60
2023/01/25 06:54:38;;;;;;;74.17;31.67;;;-2.70;99.90;;;;;;4195083;28;20257;-61
2023/01/25 06:56:39;;;;;;;63.20;31.03;;;-2.70;99.90;;;;;;4195776;28;20262;-63
2023/01/25 06:58:40;;;;;;;62.87;28.87;;;-2.70;99.90;;;;;;4194048;28;20322;-62
2023/01/25 07:00:42;;;;;;;63.90;28.13;;;-2.80;99.90;;;;;;4196208;28;20335;-63
2023/01/25 07:02:43;;;;;;;77.07;29.83;;;-2.80;99.90;;;;;;4194759;28;20273;-68
2023/01/25 07:04:44;;;;;;;70.37;33.13;;;-2.80;99.90;;;;;;4196096;28;20301;-60
2023/01/25 07:06:45;;;;;;;70.73;34.70;;;-2.80;99.90;;;;;;4194463;28;20266;-59
2023/01/25 07:08:47;;;;;;;102.40;42.80;;;-2.70;99.90;;;;;;4195880;28;20269;-61
2023/01/25 07:11:03;;;;;;;102.23;41.17;;;-2.80;99.90;;;;;;4195247;28;20591;-63
2023/01/25 07:13:04;;;;;;;92.87;37.33;;;-2.70;99.90;;;;;;4195765;28;20261;-61
2023/01/25 07:15:06;;;;;;;96.47;37.17;;;-2.60;99.90;;;;;;4194973;28;20624;-60
2023/01/25 07:17:07;;;;;;;71.00;33.47;;;-2.50;99.90;;;;;;4195508;28;20672;-63
2023/01/25 07:19:12;;;;;;;89.70;36.73;;;-2.40;99.90;;;;;;4195051;28;20270;-61
2023/01/25 07:21:15;;;;;;;76.13;34.00;;;-2.20;99.90;;;;;;4194995;28;20288;-61
2023/01/25 07:23:17;;;;;;;79.87;33.73;;;-2.10;99.90;;;;;;4195788;28;20721;-62
2023/01/25 07:25:18;;;;;;;77.80;32.17;;;-2.00;99.90;;;;;;4194736;28;21098;-61
2023/01/25 07:27:19;;;;;;;83.97;34.77;;;-1.90;99.90;;;;;;4195480;28;20311;-69
2023/01/25 07:29:21;;;;;;;101.53;45.40;;;-1.70;99.90;;;;;;4194390;28;20303;-61
2023/01/25 07:31:22;;;;;;;84.23;39.67;;;-1.70;99.90;;;;;;4195831;28;20261;-62
2023/01/25 07:33:23;;;;;;;89.63;38.70;;;-1.60;99.90;;;;;;4194597;28;20814;-60
2023/01/25 07:35:24;;;;;;;87.70;41.03;;;-1.50;99.90;;;;;;4195660;28;20338;-61
2023/01/25 07:37:26;;;;;;;94.53;38.07;;;-1.40;99.90;;;;;;4194839;28;20309;-61
2023/01/25 07:39:28;;;;;;;73.67;37.57;;;-1.40;99.90;;;;;;4196029;28;20269;-63
2023/01/25 07:41:29;;;;;;;73.17;37.83;;;-1.40;99.90;;;;;;4194064;28;20346;-60
2023/01/25 07:43:31;;;;;;;73.50;35.50;;;-1.30;99.90;;;;;;4195465;28;20726;-60
2023/01/25 07:45:32;;;;;;;78.23;35.03;;;-1.30;99.90;;;;;;4194609;28;20269;-64
2023/01/25 07:47:33;;;;;;;77.77;33.83;;;-1.20;99.90;;;;;;4194796;28;20323;-61
2023/01/25 07:49:34;;;;;;;73.93;36.27;;;-1.10;99.90;;;;;;4194593;28;21015;-61
2023/01/25 07:51:35;;;;;;;74.73;34.00;;;-1.00;99.90;;;;;;4194580;28;20269;-71
2023/01/25 07:53:38;;;;;;;79.40;34.60;;;-1.00;99.90;;;;;;4195727;28;20269;-60
2023/01/25 07:55:39;;;;;;;84.77;38.03;;;-0.90;99.90;;;;;;4193918;28;20749;-61
2023/01/25 07:57:41;;;;;;;75.13;34.23;;;-0.80;99.90;;;;;;4195340;28;20985;-60
2023/01/25 07:59:42;;;;;;;76.20;32.87;;;-0.70;99.90;;;;;;4194316;28;20274;-62
2023/01/25 08:01:43;;;;;;;78.73;34.03;;;-0.60;99.90;;;;;;4195290;28;20261;-61
2023/01/25 08:03:45;;;;;;;74.13;34.23;;;-0.50;99.90;;;;;;4193832;28;20270;-61
2023/01/25 08:05:47;;;;;;;77.17;32.63;;;-0.50;99.90;;;;;;4195183;28;20725;-64
2023/01/25 08:07:48;;;;;;;69.37;34.87;;;-0.50;99.90;;;;;;4194041;28;20319;-62
2023/01/25 08:09:49;;;;;;;66.83;33.20;;;-0.40;99.90;;;;;;4194789;28;20308;-62
2023/01/25 08:11:52;;;;;;;67.80;33.23;;;-0.40;99.90;;;;;;4193797;28;20277;-61
2023/01/25 08:13:54;;;;;;;68.50;30.83;;;-0.30;99.90;;;;;;4195105;28;20269;-62
2023/01/25 08:15:55;;;;;;;64.47;31.03;;;-0.30;99.90;;;;;;4193584;28;20315;-62
2023/01/25 08:17:59;;;;;;;71.97;32.37;;;-0.10;99.90;;;;;;4194517;28;20322;-61
2023/01/25 08:20:00;;;;;;;74.03;33.83;;;0.20;99.90;;;;;;4194109;28;20307;-63
2023/01/25 08:22:01;;;;;;;80.03;36.53;;;0.40;99.90;;;;;;4194674;28;20334;-71
2023/01/25 08:24:05;;;;;;;73.57;31.70;;;0.40;99.90;;;;;;4194825;28;20709;-67
2023/01/25 08:26:08;;;;;;;68.90;31.40;;;0.20;99.90;;;;;;4194107;28;20254;-61
2023/01/25 08:28:09;;;;;;;76.67;31.00;;;0.20;99.90;;;;;;4194231;28;20338;-65
2023/01/25 08:30:11;;;;;;;76.20;31.77;;;0.20;99.90;;;;;;4193432;28;20266;-64
2023/01/25 08:32:12;;;;;;;82.70;30.17;;;0.10;99.90;;;;;;4194209;28;20394;-71
2023/01/25 08:34:14;;;;;;;72.27;28.87;;;0.00;99.90;;;;;;4193501;28;20290;-62
2023/01/25 08:36:17;;;;;;;61.10;28.43;;;0.00;99.90;;;;;;4194833;28;20319;-64
2023/01/25 08:38:18;;;;;;;68.27;28.37;;;0.00;99.90;;;;;;4193086;28;20257;-64
2023/01/25 08:40:19;;;;;;;59.70;28.30;;;0.10;99.90;;;;;;4194592;28;20319;-61
2023/01/25 08:42:20;;;;;;;66.60;26.97;;;0.00;99.90;;;;;;4193604;28;20761;-63
2023/01/25 08:44:23;;;;;;;58.87;25.90;;;0.00;99.90;;;;;;4194644;28;20285;-63
2023/01/25 08:46:26;;;;;;;68.23;28.20;;;0.10;99.90;;;;;;4193415;28;20246;-63
2023/01/25 08:48:27;;;;;;;56.97;25.77;;;0.30;99.90;;;;;;4194353;28;20311;-63
2023/01/25 08:50:28;;;;;;;69.73;27.50;;;0.50;99.90;;;;;;4193293;28;20245;-61
2023/01/25 08:52:29;;;;;;;55.20;24.57;;;0.60;99.90;;;;;;4193969;28;20327;-62
2023/01/25 08:54:30;;;;;;;58.57;25.50;;;0.50;99.90;;;;;;4194116;28;20253;-62
2023/01/25 08:56:32;;;;;;;58.53;25.30;;;0.40;99.90;;;;;;4193813;28;20303;-61
2023/01/25 08:58:35;;;;;;;52.80;22.90;;;0.30;99.90;;;;;;4194098;28;20319;-69
2023/01/25 09:00:40;;;;;;;49.23;21.97;;;0.40;99.90;;;;;;4193293;28;20379;-67
2023/01/25 09:02:41;;;;;;;45.77;21.93;;;0.30;99.90;;;;;;4193896;28;20319;-66
2023/01/25 09:04:43;;;;;;;57.77;22.33;;;0.20;99.90;;;;;;4193071;28;20334;-63
2023/01/25 09:06:44;;;;;;;53.47;22.50;;;0.20;99.90;;;;;;4194393;28;20269;-66
2023/01/25 09:08:46;;;;;;;51.40;22.60;;;0.30;99.90;;;;;;4192633;28;21041;-67
2023/01/25 09:10:47;;;;;;;44.10;21.70;;;0.40;99.90;;;;;;4194128;28;20311;-60
2023/01/25 09:12:48;;;;;;;50.97;23.40;;;0.40;99.90;;;;;;4192829;28;20277;-69
2023/01/25 09:14:49;;;;;;;56.30;25.77;;;0.40;99.90;;;;;;4194182;28;20656;-66
2023/01/25 09:16:50;;;;;;;42.33;22.20;;;0.50;99.90;;;;;;4193151;28;20265;-64
2023/01/25 09:18:51;;;;;;;50.87;22.27;;;0.50;99.90;;;;;;4194146;28;20312;-63
2023/01/25 09:20:53;;;;;;;44.50;22.27;;;0.60;99.90;;;;;;4194668;28;20788;-64
2023/01/25 09:22:55;;;;;;;44.73;22.17;;;1.00;99.90;;;;;;4199603;28;20831;-62
2023/01/25 09:24:56;;;;;;;55.03;28.47;;;1.10;99.90;;;;;;4199214;28;20285;-64
2023/01/25 09:26:57;;;;;;;63.90;27.37;;;1.10;99.90;;;;;;4199081;28;20273;-63
2023/01/25 09:28:58;;;;;;;54.13;27.47;;;1.00;99.90;;;;;;4199039;28;20307;-60
2023/01/25 09:31:03;;;;;;;52.20;25.23;;;1.30;99.90;;;;;;4196803;28;20277;-66
2023/01/25 09:33:04;;;;;;;61.40;26.43;;;1.60;99.90;;;;;;4199082;28;20281;-69
2023/01/25 09:35:06;;;;;;;52.83;26.20;;;1.90;99.90;;;;;;4198464;28;20277;-58
2023/01/25 09:37:07;;;;;;;50.33;24.33;;;1.90;99.90;;;;;;4199660;28;20314;-61
2023/01/25 09:39:11;;;;;;;50.87;26.83;;;2.00;99.90;;;;;;4198278;28;21143;-61
2023/01/25 09:41:32;;;;;;;56.40;25.37;;;1.80;99.90;;;;;;4199418;28;20621;-61
2023/01/25 09:43:41;;;;;;;49.10;23.33;;;1.60;99.90;;;;;;4198428;28;20326;-61
2023/01/25 09:45:42;;;;;;;39.03;21.40;;;1.50;99.90;;;;;;4199537;28;20305;-61
2023/01/25 09:47:54;;;;;;;41.63;21.00;;;1.60;99.90;;;;;;4198131;28;20731;-61
2023/01/25 09:50:37;;;;;;;41.77;19.57;;;1.70;99.90;;;;;;4198911;28;20258;-62
2023/01/25 09:52:52;;;;;;;37.30;19.60;;;1.70;99.90;;;;;;4198478;28;20303;-69
2023/01/25 09:54:53;;;;;;;38.97;18.27;;;1.60;99.90;;;;;;4198929;28;20331;-70
2023/01/25 09:56:55;;;;;;;35.70;19.10;;;1.40;99.90;;;;;;4198623;28;20335;-64
2023/01/25 09:59:02;;;;;;;33.67;17.93;;;1.30;99.90;;;;;;4199368;28;20303;-61
2023/01/25 10:01:23;;;;;;;31.57;17.53;;;1.20;99.90;;;;;;4197791;28;20266;-60
2023/01/25 10:03:33;;;;;;;32.80;17.67;;;1.10;99.90;;;;;;4199418;28;20302;-62
2023/01/25 10:05:58;;;;;;;29.13;16.47;;;1.20;99.90;;;;;;4197950;28;20338;-60
2023/01/25 10:08:31;;;;;;;30.20;16.67;;;1.20;99.90;;;;;;4197138;28;20319;-61
2023/01/25 10:10:40;;;;;;;33.00;17.30;;;1.30;99.90;;;;;;4199257;28;20257;-71
2023/01/25 10:12:41;;;;;;;37.33;17.77;;;1.20;99.90;;;;;;4198375;28;20291;-62
2023/01/25 10:14:42;;;;;;;33.40;16.97;;;1.20;99.90;;;;;;4198934;28;20274;-62
2023/01/25 10:16:46;;;;;;;32.87;18.03;;;1.30;99.90;;;;;;4198546;28;20283;-61
2023/01/25 10:18:53;;;;;;;35.10;17.73;;;1.40;99.90;;;;;;4198387;28;20274;-61
2023/01/25 10:21:17;;;;;;;38.43;18.37;;;1.40;99.90;;;;;;4199014;28;20334;-69
2023/01/25 10:23:37;;;;;;;32.90;16.60;;;1.50;99.90;;;;;;4199230;28;20273;-62
2023/01/25 10:25:45;;;;;;;34.57;17.47;;;1.50;99.90;;;;;;4198175;28;20293;-69
2023/01/25 10:28:10;;;;;;;27.60;16.10;;;1.50;99.90;;;;;;4198719;28;20331;-63